Time;durP1;ratioP1;P1;durP2;ratioP2;P2;SDS_P1;SDS_P2;PMS_P1;PMS_P2;Temp;Humidity;BMP_temperature;BMP_pressure;BME280_temperature;BME280_humidity;BME280_pressure;Samples;Min_cycle;Max_cycle;Signal;HPM_P1;HPM_P2
2022/09/15 00:01:08;;;;;;;;;;;20.20;97.80;;;;;;5060461;28;19908;-68
2022/09/15 00:03:34;;;;;;;;;;;20.20;97.80;;;;;;5077640;28;20388;-69
2022/09/15 00:05:59;;;;;;;;;;;20.20;97.80;;;;;;5076912;28;19924;-69
2022/09/15 00:08:25;;;;;;;;;;;20.20;97.80;;;;;;5060692;28;19969;-68
2022/09/15 00:10:53;;;;;;;;;;;20.20;97.80;;;;;;5077387;28;20243;-69
2022/09/15 00:13:18;;;;;;;;;;;20.20;97.80;;;;;;5077567;28;19908;-68
2022/09/15 00:15:44;;;;;;;;;;;20.20;97.80;;;;;;5077172;28;19965;-69
2022/09/15 00:18:10;;;;;;;;;;;20.20;97.80;;;;;;5077460;28;19908;-69
2022/09/15 00:20:40;;;;;;;;;;;20.20;97.80;;;;;;5060696;28;19919;-69
2022/09/15 00:23:06;;;;;;;;;;;20.20;97.80;;;;;;5077541;28;20345;-69
2022/09/15 00:25:32;;;;;;;;;;;20.20;97.80;;;;;;5076511;28;20035;-69
2022/09/15 00:27:57;;;;;;;;;;;20.20;97.80;;;;;;5059295;28;19909;-68
2022/09/15 00:30:30;;;;;;;;;;;20.20;97.90;;;;;;5058600;28;20051;-69
2022/09/15 00:32:56;;;;;;;;;;;20.10;97.90;;;;;;5058864;28;20237;-68
2022/09/15 00:35:21;;;;;;;;;;;20.10;97.80;;;;;;5058545;28;19994;-69
2022/09/15 00:37:47;;;;;;;;;;;20.10;97.90;;;;;;5059774;28;20309;-69
2022/09/15 00:40:13;;;;;;;;;;;20.10;97.90;;;;;;5058942;28;19916;-68
2022/09/15 00:42:38;;;;;;;;;;;20.10;97.90;;;;;;5076251;28;19913;-68
2022/09/15 00:45:04;;;;;;;;;;;20.10;97.90;;;;;;5059422;28;19923;-68
2022/09/15 00:47:33;;;;;;;;;;;20.10;97.90;;;;;;5075913;28;19938;-68
2022/09/15 00:50:07;;;;;;;;;;;20.10;97.90;;;;;;5075701;28;20357;-69
2022/09/15 00:52:45;;;;;;;;;;;20.00;97.80;;;;;;5075799;28;20000;-68
2022/09/15 00:55:12;;;;;;;;;;;20.10;97.90;;;;;;5075651;28;19909;-69
2022/09/15 00:57:51;;;;;;;;;;;20.10;97.90;;;;;;5075583;28;19909;-68
2022/09/15 01:00:19;;;;;;;;;;;20.00;97.80;;;;;;5075855;28;19935;-68
2022/09/15 01:02:46;;;;;;;;;;;20.10;97.90;;;;;;5076927;28;19908;-68
2022/09/15 01:05:13;;;;;;;;;;;20.10;97.90;;;;;;5076949;28;19998;-68
2022/09/15 01:07:42;;;;;;;;;;;20.00;97.80;;;;;;5080247;28;19947;-68
2022/09/15 01:10:11;;;;;;;;;;;20.00;97.90;;;;;;5080969;28;19919;-68
2022/09/15 01:12:38;;;;;;;;;;;20.00;97.90;;;;;;5080381;28;19919;-68
2022/09/15 01:15:03;;;;;;;;;;;20.00;97.90;;;;;;5080433;28;19955;-68
2022/09/15 01:17:56;;;;;;;;;;;20.00;97.90;;;;;;5080338;28;20262;-68
2022/09/15 01:20:40;;;;;;;;;;;20.00;97.80;;;;;;5063985;28;19916;-68
2022/09/15 01:23:12;;;;;;;;;;;20.00;97.80;;;;;;5063350;28;19999;-68
2022/09/15 01:26:12;;;;;;;;;;;20.00;97.90;;;;;;5063401;28;20382;-68
2022/09/15 01:29:04;;;;;;;;;;;20.00;97.90;;;;;;5063223;28;20046;-68
2022/09/15 01:33:02;;;;;;;;;;;20.00;97.90;;;;;;5032795;28;19908;-68
2022/09/15 01:34:31;;;;;;;;;;;20.00;97.90;;;;;;5080556;28;20231;-68
2022/09/15 01:37:00;;;;;;;;;;;19.90;97.90;;;;;;5079968;28;19957;-68
2022/09/15 01:39:35;;;;;;;;;;;19.90;97.90;;;;;;5080252;28;19937;-68
2022/09/15 01:42:02;;;;;;;;;;;19.90;97.90;;;;;;5080384;28;20186;-68
2022/09/15 01:44:31;;;;;;;;;;;19.90;97.90;;;;;;5080933;28;19909;-68
2022/09/15 01:47:01;;;;;;;;;;;19.90;97.90;;;;;;5080015;28;19915;-69
2022/09/15 01:49:33;;;;;;;;;;;19.90;97.90;;;;;;5079791;28;19908;-68
2022/09/15 01:51:58;;;;;;;;;;;19.90;97.90;;;;;;5080521;28;19909;-68
2022/09/15 01:54:29;;;;;;;;;;;19.90;97.90;;;;;;5080171;28;19966;-68
2022/09/15 01:56:55;;;;;;;;;;;19.90;97.90;;;;;;5080025;28;19908;-68
2022/09/15 01:59:20;;;;;;;;;;;19.90;97.90;;;;;;5079779;28;19981;-68
2022/09/15 02:02:04;;;;;;;;;;;19.90;97.90;;;;;;5063696;28;19944;-68
2022/09/15 02:04:40;;;;;;;;;;;19.90;97.90;;;;;;5079616;28;20445;-68
2022/09/15 02:07:06;;;;;;;;;;;19.90;97.90;;;;;;5079771;28;19958;-68
2022/09/15 02:09:42;;;;;;;;;;;19.90;97.90;;;;;;5062703;28;19951;-68
2022/09/15 02:12:08;;;;;;;;;;;19.80;97.90;;;;;;5079693;28;19915;-68
2022/09/15 02:14:46;;;;;;;;;;;19.80;97.90;;;;;;5062764;28;19913;-71
2022/09/15 02:17:14;;;;;;;;;;;19.80;97.90;;;;;;5078950;28;19912;-68
2022/09/15 02:19:43;;;;;;;;;;;19.80;97.90;;;;;;5079268;28;19959;-68
2022/09/15 02:22:11;;;;;;;;;;;19.80;97.90;;;;;;5079807;28;19908;-68
2022/09/15 02:24:43;;;;;;;;;;;19.80;97.90;;;;;;5079346;28;20198;-68
2022/09/15 02:27:11;;;;;;;;;;;19.80;97.90;;;;;;5079457;28;19962;-68
2022/09/15 02:29:38;;;;;;;;;;;19.80;97.90;;;;;;5078839;28;19919;-68
2022/09/15 02:32:05;;;;;;;;;;;19.80;98.10;;;;;;5079101;28;20320;-68
2022/09/15 02:34:33;;;;;;;;;;;19.80;97.90;;;;;;5079205;28;20011;-68
2022/09/15 02:37:05;;;;;;;;;;;19.80;97.90;;;;;;5079355;28;19912;-68
2022/09/15 02:39:33;;;;;;;;;;;19.80;97.90;;;;;;5079235;28;19951;-68
2022/09/15 02:42:01;;;;;;;;;;;19.70;97.80;;;;;;5079369;28;19909;-68
2022/09/15 02:44:29;;;;;;;;;;;19.70;97.90;;;;;;5070761;28;20278;-69
2022/09/15 02:46:56;;;;;;;;;;;19.70;97.80;;;;;;5079307;28;19940;-68
2022/09/15 02:49:22;;;;;;;;;;;19.70;97.80;;;;;;5078770;28;19966;-68
2022/09/15 02:51:48;;;;;;;;;;;19.70;97.80;;;;;;5061808;28;19908;-69
2022/09/15 02:54:13;;;;;;;;;;;19.70;97.80;;;;;;5062143;28;19916;-68
2022/09/15 02:56:39;;;;;;;;;;;19.70;97.80;;;;;;5061733;28;20198;-68
2022/09/15 02:59:05;;;;;;;;;;;19.70;97.80;;;;;;5062056;28;19908;-68
2022/09/15 03:01:33;;;;;;;;;;;19.70;97.80;;;;;;5061944;28;19908;-68
2022/09/15 03:03:59;;;;;;;;;;;19.70;97.80;;;;;;5062105;28;19926;-68
2022/09/15 03:06:39;;;;;;;;;;;19.70;97.80;;;;;;5078411;28;19912;-68
2022/09/15 03:09:06;;;;;;;;;;;19.70;97.80;;;;;;5062221;28;20254;-68
2022/09/15 03:11:32;;;;;;;;;;;19.70;97.80;;;;;;5078795;28;19995;-68
2022/09/15 03:13:59;;;;;;;;;;;19.70;97.80;;;;;;5078297;28;19908;-68
2022/09/15 03:16:28;;;;;;;;;;;19.70;97.90;;;;;;5078236;28;20003;-68
2022/09/15 03:18:54;;;;;;;;;;;19.70;97.80;;;;;;5078536;28;20285;-68
2022/09/15 03:21:20;;;;;;;;;;;19.70;97.80;;;;;;5077941;28;19908;-68
2022/09/15 03:23:46;;;;;;;;;;;19.60;97.80;;;;;;5078315;28;20058;-68
2022/09/15 03:26:11;;;;;;;;;;;19.60;97.80;;;;;;5060406;28;19974;-68
2022/09/15 03:28:37;;;;;;;;;;;19.60;97.80;;;;;;5060067;28;19960;-68
2022/09/15 03:31:04;;;;;;;;;;;19.60;97.80;;;;;;5077711;28;20009;-68
2022/09/15 03:33:30;;;;;;;;;;;19.60;97.80;;;;;;5077097;28;19928;-68
2022/09/15 03:35:56;;;;;;;;;;;19.60;97.80;;;;;;5077504;28;19909;-68
2022/09/15 03:38:22;;;;;;;;;;;19.60;97.70;;;;;;5077031;28;19908;-70
2022/09/15 03:41:12;;;;;;;;;;;19.60;97.80;;;;;;5060198;28;19908;-68
2022/09/15 03:43:38;;;;;;;;;;;19.60;97.70;;;;;;5077319;28;19909;-68
2022/09/15 03:46:04;;;;;;;;;;;19.60;97.70;;;;;;5077102;28;19912;-68
2022/09/15 03:48:31;;;;;;;;;;;19.60;97.70;;;;;;5077195;28;19999;-69
2022/09/15 03:51:06;;;;;;;;;;;19.60;97.70;;;;;;5076719;28;20054;-68
2022/09/15 03:53:33;;;;;;;;;;;19.60;97.70;;;;;;5060528;28;19908;-68
2022/09/15 03:56:08;;;;;;;;;;;19.60;97.70;;;;;;5076640;28;19919;-68
2022/09/15 03:58:33;;;;;;;;;;;19.60;97.70;;;;;;5060483;28;19908;-68
2022/09/15 04:00:59;;;;;;;;;;;19.60;97.70;;;;;;5075826;28;19916;-68
2022/09/15 04:03:25;;;;;;;;;;;19.60;97.70;;;;;;5067222;28;20194;-68
2022/09/15 04:05:50;;;;;;;;;;;19.60;97.60;;;;;;5059449;28;19912;-68
2022/09/15 04:08:16;;;;;;;;;;;19.60;97.60;;;;;;5060233;28;19908;-69
2022/09/15 04:10:41;;;;;;;;;;;19.60;97.60;;;;;;5077342;28;19909;-68
2022/09/15 04:13:15;;;;;;;;;;;19.60;97.60;;;;;;5058966;28;20242;-68
2022/09/15 04:15:40;;;;;;;;;;;19.60;97.60;;;;;;5059305;28;20452;-68
2022/09/15 04:18:06;;;;;;;;;;;19.60;97.60;;;;;;5059753;28;19924;-68
2022/09/15 04:20:31;;;;;;;;;;;19.60;97.50;;;;;;5059143;28;19920;-68
2022/09/15 04:22:58;;;;;;;;;;;19.60;97.60;;;;;;5059689;28;19919;-68
2022/09/15 04:25:26;;;;;;;;;;;19.60;97.50;;;;;;5058881;28;20290;-68
2022/09/15 04:27:52;;;;;;;;;;;19.60;97.50;;;;;;5076300;28;20021;-68
2022/09/15 04:30:17;;;;;;;;;;;19.60;97.50;;;;;;5075986;28;20301;-68
2022/09/15 04:32:43;;;;;;;;;;;19.50;97.50;;;;;;5059194;28;19920;-68
2022/09/15 04:35:09;;;;;;;;;;;19.60;97.50;;;;;;5058818;28;20270;-68
2022/09/15 04:37:34;;;;;;;;;;;19.60;97.50;;;;;;5054878;28;19917;-68
2022/09/15 04:40:09;;;;;;;;;;;19.60;97.40;;;;;;5055878;28;19909;-68
2022/09/15 04:42:34;;;;;;;;;;;19.60;97.40;;;;;;5059017;28;19978;-66
2022/09/15 04:45:00;;;;;;;;;;;19.50;97.40;;;;;;5058976;28;20190;-68
2022/09/15 04:47:26;;;;;;;;;;;19.60;97.50;;;;;;5058537;28;19908;-68
2022/09/15 04:49:52;;;;;;;;;;;19.60;97.60;;;;;;5058297;28;19912;-68
2022/09/15 04:52:17;;;;;;;;;;;19.60;97.60;;;;;;5058491;28;20171;-68
2022/09/15 04:54:43;;;;;;;;;;;19.50;97.70;;;;;;5057900;28;19908;-68
2022/09/15 04:57:09;;;;;;;;;;;19.60;97.70;;;;;;5056775;28;19919;-68
2022/09/15 04:59:35;;;;;;;;;;;19.60;97.80;;;;;;5057191;28;20268;-68
2022/09/15 05:02:01;;;;;;;;;;;19.60;97.80;;;;;;5057016;28;19909;-68
2022/09/15 05:04:26;;;;;;;;;;;19.60;97.90;;;;;;5057671;28;19916;-68
2022/09/15 05:06:52;;;;;;;;;;;19.60;97.90;;;;;;5056865;28;19913;-68
2022/09/15 05:09:18;;;;;;;;;;;19.60;97.90;;;;;;5058210;28;20503;-68
2022/09/15 05:11:43;;;;;;;;;;;19.60;98.00;;;;;;5057711;28;20183;-68
2022/09/15 05:14:09;;;;;;;;;;;19.60;98.10;;;;;;5057372;28;19917;-68
2022/09/15 05:16:36;;;;;;;;;;;19.60;98.10;;;;;;5057329;28;20422;-68
2022/09/15 05:19:03;;;;;;;;;;;19.50;98.20;;;;;;5057422;28;19908;-67
2022/09/15 05:21:29;;;;;;;;;;;19.60;98.20;;;;;;5055535;28;19909;-68
2022/09/15 05:23:55;;;;;;;;;;;19.60;98.30;;;;;;5055888;28;19996;-68
2022/09/15 05:26:25;;;;;;;;;;;19.60;98.20;;;;;;5055849;28;19999;-68
2022/09/15 05:28:51;;;;;;;;;;;19.60;98.30;;;;;;5056134;28;19916;-68
2022/09/15 05:31:27;;;;;;;;;;;19.50;98.30;;;;;;5054435;28;19909;-68
2022/09/15 05:33:53;;;;;;;;;;;19.60;98.30;;;;;;5054883;28;19924;-68
2022/09/15 05:36:22;;;;;;;;;;;19.60;98.30;;;;;;5055507;28;20193;-68
2022/09/15 05:38:48;;;;;;;;;;;19.60;98.30;;;;;;5056390;28;19909;-68
2022/09/15 05:41:17;;;;;;;;;;;19.60;98.20;;;;;;5055483;28;19909;-68
2022/09/15 05:43:44;;;;;;;;;;;19.60;98.20;;;;;;5055487;28;20004;-68
2022/09/15 05:46:09;;;;;;;;;;;19.60;98.20;;;;;;5054791;28;19913;-68
2022/09/15 05:48:35;;;;;;;;;;;19.60;98.20;;;;;;5055894;28;19913;-68
2022/09/15 05:51:01;;;;;;;;;;;19.60;98.10;;;;;;5053843;28;19956;-68
2022/09/15 05:53:27;;;;;;;;;;;19.60;98.10;;;;;;5055661;28;19915;-68
2022/09/15 05:55:53;;;;;;;;;;;19.60;98.10;;;;;;5054275;28;19908;-68
2022/09/15 05:58:19;;;;;;;;;;;19.60;98.10;;;;;;5054967;28;19944;-68
2022/09/15 06:00:45;;;;;;;;;;;19.60;98.10;;;;;;5054280;28;19999;-68
2022/09/15 06:03:14;;;;;;;;;;;19.60;98.00;;;;;;5055394;28;20270;-68
2022/09/15 06:05:40;;;;;;;;;;;19.60;98.00;;;;;;5055863;28;19923;-68
2022/09/15 06:08:06;;;;;;;;;;;19.70;98.00;;;;;;5054717;28;19917;-68
2022/09/15 06:10:32;;;;;;;;;;;19.70;97.90;;;;;;5054601;28;19920;-68
2022/09/15 06:12:57;;;;;;;;;;;19.70;97.90;;;;;;5054750;28;20392;-68
2022/09/15 06:15:23;;;;;;;;;;;19.70;97.90;;;;;;5054331;28;20007;-68
2022/09/15 06:17:49;;;;;;;;;;;19.70;97.90;;;;;;5056349;28;20012;-68
2022/09/15 06:20:15;;;;;;;;;;;19.70;97.80;;;;;;5056365;28;19913;-68
2022/09/15 06:22:41;;;;;;;;;;;19.80;97.80;;;;;;5057311;28;19920;-68
2022/09/15 06:25:07;;;;;;;;;;;19.80;97.70;;;;;;5069683;28;19921;-67
2022/09/15 06:27:38;;;;;;;;;;;19.90;97.70;;;;;;5056412;28;20374;-68
2022/09/15 06:30:03;;;;;;;;;;;19.90;97.60;;;;;;5055441;28;19909;-68
2022/09/15 06:32:29;;;;;;;;;;;19.90;97.60;;;;;;5053639;28;19939;-68
2022/09/15 06:34:55;;;;;;;;;;;19.80;97.50;;;;;;5054659;28;20455;-68
2022/09/15 06:37:23;;;;;;;;;;;19.80;97.50;;;;;;5053015;28;19908;-68
2022/09/15 06:39:48;;;;;;;;;;;19.80;97.50;;;;;;5053087;28;19917;-68
2022/09/15 06:42:14;;;;;;;;;;;19.80;97.60;;;;;;5053266;28;19909;-69
2022/09/15 06:44:39;;;;;;;;;;;19.80;97.60;;;;;;5054158;28;19909;-69
2022/09/15 06:47:06;;;;;;;;;;;19.80;97.60;;;;;;5053855;28;19912;-68
2022/09/15 06:49:32;;;;;;;;;;;19.80;97.50;;;;;;5053717;28;19909;-68
2022/09/15 06:51:57;;;;;;;;;;;19.90;97.60;;;;;;5053803;28;19939;-68
2022/09/15 06:54:23;;;;;;;;;;;19.90;97.60;;;;;;5053938;28;19920;-68
2022/09/15 06:56:49;;;;;;;;;;;19.90;97.50;;;;;;5053579;28;19916;-68
2022/09/15 06:59:15;;;;;;;;;;;19.90;97.50;;;;;;5053428;28;19909;-68
2022/09/15 07:01:40;;;;;;;;;;;19.90;97.50;;;;;;5052389;28;19917;-69
2022/09/15 07:04:08;;;;;;;;;;;19.90;97.40;;;;;;5051656;28;19909;-68
2022/09/15 07:06:34;;;;;;;;;;;19.90;97.50;;;;;;5051395;28;19920;-68
2022/09/15 07:09:03;;;;;;;;;;;19.90;97.40;;;;;;5052399;28;19909;-68
2022/09/15 07:11:29;;;;;;;;;;;19.90;97.40;;;;;;5052357;28;19959;-68
2022/09/15 07:13:55;;;;;;;;;;;19.90;97.40;;;;;;5051028;28;19909;-68
2022/09/15 07:16:21;;;;;;;;;;;20.00;97.50;;;;;;5049846;28;19924;-69
2022/09/15 07:18:47;;;;;;;;;;;20.00;97.40;;;;;;5050237;28;19909;-68
2022/09/15 07:21:14;;;;;;;;;;;20.00;97.40;;;;;;5050496;28;20565;-69
2022/09/15 07:23:40;;;;;;;;;;;20.00;97.40;;;;;;5050246;28;20270;-68
2022/09/15 07:26:10;;;;;;;;;;;20.00;97.40;;;;;;5050690;28;19917;-68
2022/09/15 07:28:35;;;;;;;;;;;20.00;97.40;;;;;;5051759;28;19909;-68
2022/09/15 07:31:02;;;;;;;;;;;20.00;97.30;;;;;;5053161;28;19908;-68
2022/09/15 07:33:28;;;;;;;;;;;20.00;97.30;;;;;;5052294;28;19971;-69
2022/09/15 07:35:54;;;;;;;;;;;20.00;97.30;;;;;;5053615;28;19944;-68
2022/09/15 07:38:19;;;;;;;;;;;20.00;97.40;;;;;;5054686;28;19909;-68
2022/09/15 07:40:45;;;;;;;;;;;20.00;97.30;;;;;;5054176;28;20023;-68
2022/09/15 07:43:10;;;;;;;;;;;20.00;97.30;;;;;;5054771;28;20625;-68
2022/09/15 07:45:38;;;;;;;;;;;20.10;97.50;;;;;;5053393;28;20508;-68
2022/09/15 07:48:04;;;;;;;;;;;20.10;97.20;;;;;;5054772;28;20278;-69
2022/09/15 07:50:29;;;;;;;;;;;20.10;97.10;;;;;;5053652;28;20275;-68
2022/09/15 07:52:55;;;;;;;;;;;20.10;97.00;;;;;;5053808;28;19914;-68
2022/09/15 07:55:21;;;;;;;;;;;20.20;97.10;;;;;;5053061;28;20516;-68
2022/09/15 07:57:54;;;;;;;;;;;20.20;96.90;;;;;;5053349;28;19999;-68
2022/09/15 08:00:20;;;;;;;;;;;20.20;96.70;;;;;;5053509;28;20023;-68
2022/09/15 08:02:45;;;;;;;;;;;20.30;96.70;;;;;;5052063;28;20007;-68
2022/09/15 08:05:11;;;;;;;;;;;20.40;96.50;;;;;;5051217;28;19978;-68
2022/09/15 08:07:38;;;;;;;;;;;20.40;96.30;;;;;;5051564;28;19909;-68
2022/09/15 08:10:04;;;;;;;;;;;20.50;96.00;;;;;;5050727;28;20232;-68
2022/09/15 08:12:30;;;;;;;;;;;20.60;95.80;;;;;;5052544;28;19909;-68
2022/09/15 08:14:56;;;;;;;;;;;20.60;95.60;;;;;;5051913;28;20465;-68
2022/09/15 08:17:22;;;;;;;;;;;20.60;95.40;;;;;;5051604;28;19909;-68
2022/09/15 08:19:47;;;;;;;;;;;20.60;95.20;;;;;;5049954;28;19919;-67
2022/09/15 08:22:13;;;;;;;;;;;20.80;95.00;;;;;;5050618;28;19916;-68
2022/09/15 08:24:39;;;;;;;;;;;21.00;94.40;;;;;;5050492;28;20008;-69
2022/09/15 08:27:04;;;;;;;;;;;21.10;93.90;;;;;;5051484;28;20224;-69
2022/09/15 08:29:30;;;;;;;;;;;21.10;93.60;;;;;;5051394;28;20304;-69
2022/09/15 08:31:56;;;;;;;;;;;21.10;93.60;;;;;;5052271;28;19909;-67
2022/09/15 08:34:22;;;;;;;;;;;21.30;93.40;;;;;;5051797;28;20027;-66
2022/09/15 08:36:47;;;;;;;;;;;21.30;93.40;;;;;;5051024;28;19909;-69
2022/09/15 08:39:13;;;;;;;;;;;21.20;93.00;;;;;;5052069;28;20225;-68
2022/09/15 08:41:43;;;;;;;;;;;21.30;93.10;;;;;;5052739;28;20333;-69
2022/09/15 08:44:11;;;;;;;;;;;21.30;93.20;;;;;;5052000;28;20107;-68
2022/09/15 08:46:49;;;;;;;;;;;21.40;93.20;;;;;;5051537;28;19913;-69
2022/09/15 08:49:18;;;;;;;;;;;21.50;92.70;;;;;;5052109;28;19921;-68
2022/09/15 08:51:46;;;;;;;;;;;21.70;92.30;;;;;;5051817;28;19947;-68
2022/09/15 08:54:15;;;;;;;;;;;21.70;92.10;;;;;;5052344;28;19909;-68
2022/09/15 08:56:42;;;;;;;;;;;21.90;91.90;;;;;;5052331;28;20015;-68
2022/09/15 08:59:15;;;;;;;;;;;22.00;91.40;;;;;;5052437;28;19916;-69
2022/09/15 09:01:40;;;;;;;;;;;22.20;90.70;;;;;;5051511;28;20183;-68
2022/09/15 09:04:06;;;;;;;;;;;22.30;90.30;;;;;;5051790;28;20317;-68
2022/09/15 09:06:35;;;;;;;;;;;22.40;90.00;;;;;;5052142;28;19913;-68
2022/09/15 09:09:19;;;;;;;;;;;22.20;90.10;;;;;;5050586;28;19969;-69
2022/09/15 09:11:48;;;;;;;;;;;22.10;90.40;;;;;;5050198;28;19971;-69
2022/09/15 09:14:19;;;;;;;;;;;22.10;90.60;;;;;;5050667;28;19920;-68
2022/09/15 09:16:48;;;;;;;;;;;22.10;90.50;;;;;;5049890;28;19978;-68
2022/09/15 09:19:31;;;;;;;;;;;22.30;90.30;;;;;;5051441;28;19909;-69
2022/09/15 09:22:17;;;;;;;;;;;22.40;89.70;;;;;;5048975;28;19913;-69
2022/09/15 09:24:45;;;;;;;;;;;22.30;89.70;;;;;;5051200;28;19916;-68
2022/09/15 09:27:17;;;;;;;;;;;22.30;90.00;;;;;;5052711;28;19909;-69
2022/09/15 09:29:54;;;;;;;;;;;22.20;90.10;;;;;;5054554;28;19909;-68
2022/09/15 09:32:32;;;;;;;;;;;22.20;90.30;;;;;;5053509;28;20094;-68
2022/09/15 09:35:17;;;;;;;;;;;22.20;90.40;;;;;;5055748;28;19908;-68
2022/09/15 09:37:43;;;;;;;;;;;22.60;89.00;;;;;;5054704;28;19944;-68
2022/09/15 09:40:13;;;;;;;;;;;22.80;86.30;;;;;;5053887;28;19920;-68
2022/09/15 09:42:39;;;;;;;;;;;22.70;86.40;;;;;;5055715;28;19962;-68
2022/09/15 09:45:04;;;;;;;;;;;23.40;83.50;;;;;;5053635;28;19920;-69
2022/09/15 09:47:33;;;;;;;;;;;23.60;80.10;;;;;;5052189;28;19909;-69
2022/09/15 09:49:59;;;;;;;;;;;23.50;80.00;;;;;;5053991;28;19908;-68
2022/09/15 09:52:33;;;;;;;;;;;23.20;81.40;;;;;;5053160;28;19935;-68
2022/09/15 09:54:59;;;;;;;;;;;23.00;82.80;;;;;;5053118;28;20003;-69
2022/09/15 09:57:27;;;;;;;;;;;22.80;84.70;;;;;;5050880;28;19909;-69
2022/09/15 09:59:53;;;;;;;;;;;22.60;86.70;;;;;;5052705;28;19909;-69
2022/09/15 10:02:21;;;;;;;;;;;22.50;88.10;;;;;;5051863;28;19959;-68
2022/09/15 10:04:49;;;;;;;;;;;22.30;89.20;;;;;;5050934;28;19909;-69
2022/09/15 10:07:16;;;;;;;;;;;22.30;90.00;;;;;;5053355;28;20028;-68
2022/09/15 10:09:49;;;;;;;;;;;22.30;90.10;;;;;;5053077;28;19935;-69
2022/09/15 10:12:20;;;;;;;;;;;22.20;90.20;;;;;;5053473;28;19944;-68
2022/09/15 10:14:50;;;;;;;;;;;22.20;90.30;;;;;;5052414;28;19922;-68
2022/09/15 10:17:16;;;;;;;;;;;22.10;90.50;;;;;;5054440;28;20444;-69
2022/09/15 10:19:55;;;;;;;;;;;22.10;90.70;;;;;;5051469;28;19909;-69
2022/09/15 10:22:23;;;;;;;;;;;22.10;91.00;;;;;;5052520;28;19909;-68
2022/09/15 10:24:52;;;;;;;;;;;22.20;90.70;;;;;;5052670;28;19915;-69
2022/09/15 10:27:28;;;;;;;;;;;22.40;90.40;;;;;;5050826;28;19909;-68
2022/09/15 10:29:57;;;;;;;;;;;22.40;89.90;;;;;;5050894;28;19999;-69
2022/09/15 10:32:24;;;;;;;;;;;22.50;89.80;;;;;;5052598;28;19917;-69
2022/09/15 10:35:13;;;;;;;;;;;22.40;90.00;;;;;;5053899;28;19956;-69
2022/09/15 10:37:48;;;;;;;;;;;22.30;90.40;;;;;;5044497;28;19999;-68
2022/09/15 10:40:33;;;;;;;;;;;22.20;90.60;;;;;;5052580;28;19909;-68
2022/09/15 10:43:08;;;;;;;;;;;22.10;90.90;;;;;;5053283;28;19916;-68
2022/09/15 10:45:37;;;;;;;;;;;22.00;91.20;;;;;;5051029;28;20019;-68
2022/09/15 10:48:22;;;;;;;;;;;22.00;91.30;;;;;;5052136;28;19970;-68
2022/09/15 10:51:26;;;;;;;;;;;21.90;91.50;;;;;;5051698;28;19920;-69
2022/09/15 10:54:10;;;;;;;;;;;21.90;91.90;;;;;;4993791;28;19910;-69
2022/09/15 10:56:39;;;;;;;;;;;21.90;91.90;;;;;;4993013;28;19917;-69
2022/09/15 10:59:11;;;;;;;;;;;21.90;92.10;;;;;;5027360;28;20270;-68
2022/09/15 11:01:45;;;;;;;;;;;21.80;92.00;;;;;;5051286;28;19909;-69
2022/09/15 11:04:11;;;;;;;;;;;21.80;92.30;;;;;;5052749;28;20009;-69
2022/09/15 11:06:36;;;;;;;;;;;21.80;92.30;;;;;;5053343;28;20030;-69
2022/09/15 11:09:11;;;;;;;;;;;21.70;92.40;;;;;;5052982;28;20190;-69
2022/09/15 11:11:44;;;;;;;;;;;21.70;92.50;;;;;;5053296;28;19913;-69
2022/09/15 11:14:10;;;;;;;;;;;21.60;92.60;;;;;;5053276;28;20237;-69
2022/09/15 11:16:45;;;;;;;;;;;21.60;92.70;;;;;;5050244;28;20294;-69
2022/09/15 11:19:24;;;;;;;;;;;21.60;92.90;;;;;;5052423;28;20424;-69
2022/09/15 11:21:52;;;;;;;;;;;21.50;93.00;;;;;;5053012;28;19916;-69
2022/09/15 11:24:40;;;;;;;;;;;21.50;93.10;;;;;;5052957;28;20206;-69
2022/09/15 11:27:24;;;;;;;;;;;21.50;93.20;;;;;;5050828;28;19936;-69
2022/09/15 11:29:50;;;;;;;;;;;21.40;93.30;;;;;;5052244;28;20213;-68
2022/09/15 11:32:31;;;;;;;;;;;21.40;93.40;;;;;;5053023;28;20055;-69
2022/09/15 11:34:57;;;;;;;;;;;21.40;93.50;;;;;;5053225;28;19917;-69
2022/09/15 11:37:24;;;;;;;;;;;21.30;93.70;;;;;;5051426;28;19908;-69
2022/09/15 11:39:57;;;;;;;;;;;21.30;93.80;;;;;;5051418;28;19963;-69
2022/09/15 11:42:29;;;;;;;;;;;21.30;93.90;;;;;;5051929;28;20361;-69
2022/09/15 11:44:55;;;;;;;;;;;21.30;94.10;;;;;;5051758;28;19944;-70
2022/09/15 11:47:20;;;;;;;;;;;21.20;94.10;;;;;;5051582;28;19959;-67
2022/09/15 11:49:52;;;;;;;;;;;21.20;94.20;;;;;;5053161;28;19960;-69
2022/09/15 11:52:34;;;;;;;;;;;21.20;94.30;;;;;;5052015;28;20226;-69
2022/09/15 11:55:19;;;;;;;;;;;21.20;94.30;;;;;;5053803;28;19909;-69
2022/09/15 11:57:52;;;;;;;;;;;21.20;94.30;;;;;;5052927;28;19944;-68
2022/09/15 12:00:19;;;;;;;;;;;21.20;94.30;;;;;;5053485;28;19919;-67
2022/09/15 12:02:47;;;;;;;;;;;21.20;94.30;;;;;;5053174;28;19924;-68
2022/09/15 12:05:22;;;;;;;;;;;21.20;94.30;;;;;;5052537;28;20465;-69
2022/09/15 12:07:51;;;;;;;;;;;21.30;94.30;;;;;;5051718;28;19948;-70
2022/09/15 12:10:19;;;;;;;;;;;21.30;94.30;;;;;;5051818;28;20255;-69
2022/09/15 12:12:45;;;;;;;;;;;21.30;94.20;;;;;;5052210;28;20551;-68
2022/09/15 12:15:15;;;;;;;;;;;21.40;94.10;;;;;;5052866;28;19909;-68
2022/09/15 12:17:50;;;;;;;;;;;21.50;94.00;;;;;;5052881;28;19909;-68
2022/09/15 12:20:20;;;;;;;;;;;21.50;93.80;;;;;;5053189;28;19913;-68
2022/09/15 12:22:49;;;;;;;;;;;21.60;93.60;;;;;;5052870;28;19917;-68
2022/09/15 12:25:23;;;;;;;;;;;21.70;93.40;;;;;;5052431;28;20043;-68
2022/09/15 12:28:08;;;;;;;;;;;21.70;93.40;;;;;;5051058;28;20279;-68
2022/09/15 12:30:38;;;;;;;;;;;21.80;93.00;;;;;;5052064;28;19992;-68
2022/09/15 12:33:23;;;;;;;;;;;21.80;92.70;;;;;;5051214;28;19924;-68
2022/09/15 12:35:48;;;;;;;;;;;21.80;92.60;;;;;;5051839;28;19909;-68
2022/09/15 12:38:14;;;;;;;;;;;21.90;92.60;;;;;;5050576;28;19969;-68
2022/09/15 12:40:40;;;;;;;;;;;21.90;92.60;;;;;;5051206;28;19936;-68
2022/09/15 12:43:15;;;;;;;;;;;21.90;92.50;;;;;;5049522;28;20596;-68
2022/09/15 12:45:43;;;;;;;;;;;21.90;92.50;;;;;;5050710;28;20001;-69
2022/09/15 12:48:20;;;;;;;;;;;21.90;92.60;;;;;;5051475;28;20021;-69
2022/09/15 12:50:53;;;;;;;;;;;21.80;92.60;;;;;;5051889;28;19974;-68
2022/09/15 12:53:27;;;;;;;;;;;21.80;92.70;;;;;;5050974;28;20159;-69
2022/09/15 12:55:58;;;;;;;;;;;21.80;92.70;;;;;;5049812;28;19952;-69
2022/09/15 12:58:35;;;;;;;;;;;21.70;92.80;;;;;;5050823;28;20478;-69
2022/09/15 13:01:20;;;;;;;;;;;21.70;92.90;;;;;;5050469;28;19919;-69
2022/09/15 13:03:47;;;;;;;;;;;21.70;93.00;;;;;;5053382;28;19915;-69
2022/09/15 13:06:22;;;;;;;;;;;21.70;93.00;;;;;;5054046;28;19923;-70
2022/09/15 13:08:51;;;;;;;;;;;21.70;93.10;;;;;;5054083;28;19959;-69
2022/09/15 13:11:28;;;;;;;;;;;21.70;92.90;;;;;;5054829;28;20015;-68
2022/09/15 13:14:03;;;;;;;;;;;21.70;92.90;;;;;;5054836;28;19909;-68
2022/09/15 13:16:31;;;;;;;;;;;21.70;92.90;;;;;;5054497;28;19994;-69
2022/09/15 13:19:06;;;;;;;;;;;21.70;93.00;;;;;;5053741;28;19946;-69
2022/09/15 13:21:33;;;;;;;;;;;21.70;93.00;;;;;;5054189;28;19928;-68
2022/09/15 13:24:01;;;;;;;;;;;21.70;93.10;;;;;;5055959;28;20297;-69
2022/09/15 13:26:29;;;;;;;;;;;21.70;93.00;;;;;;5055848;28;19917;-68
2022/09/15 13:28:56;;;;;;;;;;;21.80;92.90;;;;;;5055907;28;19908;-68
2022/09/15 13:31:28;;;;;;;;;;;21.80;92.90;;;;;;5056503;28;20175;-68
2022/09/15 13:33:57;;;;;;;;;;;21.80;92.80;;;;;;5055613;28;20344;-68
2022/09/15 13:36:29;;;;;;;;;;;21.80;92.70;;;;;;5054953;28;19909;-69
2022/09/15 13:39:14;;;;;;;;;;;21.80;92.70;;;;;;5054844;28;19908;-68
2022/09/15 13:41:55;;;;;;;;;;;21.80;92.60;;;;;;5053294;28;19916;-69
2022/09/15 13:44:23;;;;;;;;;;;21.90;92.60;;;;;;5054993;28;19908;-69
2022/09/15 13:46:49;;;;;;;;;;;21.90;92.50;;;;;;5054974;28;19912;-69
2022/09/15 13:49:34;;;;;;;;;;;21.90;92.40;;;;;;5055096;28;19909;-69
2022/09/15 13:52:17;;;;;;;;;;;21.90;92.40;;;;;;5055461;28;19951;-69
2022/09/15 13:55:02;;;;;;;;;;;21.90;92.30;;;;;;5054368;28;20164;-70
2022/09/15 13:57:27;;;;;;;;;;;21.90;92.40;;;;;;5053358;28;19908;-70
2022/09/15 13:59:53;;;;;;;;;;;21.90;92.40;;;;;;5053896;28;19909;-69
2022/09/15 14:02:19;;;;;;;;;;;21.80;92.40;;;;;;5052990;28;20186;-69
2022/09/15 14:04:49;;;;;;;;;;;21.80;92.50;;;;;;5054150;28;19931;-69
2022/09/15 14:07:20;;;;;;;;;;;21.90;92.50;;;;;;5054160;28;19921;-69
2022/09/15 14:09:46;;;;;;;;;;;21.80;92.40;;;;;;5055216;28;19917;-69
2022/09/15 14:12:13;;;;;;;;;;;21.80;92.40;;;;;;5053923;28;19909;-69
2022/09/15 14:14:39;;;;;;;;;;;21.80;92.50;;;;;;5053299;28;20015;-69
2022/09/15 14:17:16;;;;;;;;;;;21.80;92.50;;;;;;5052987;28;20007;-69
2022/09/15 14:19:42;;;;;;;;;;;21.80;92.60;;;;;;5054104;28;20302;-69
2022/09/15 14:22:20;;;;;;;;;;;21.80;92.60;;;;;;5053592;28;19959;-69
2022/09/15 14:24:46;;;;;;;;;;;21.70;92.70;;;;;;5051751;28;19921;-69
2022/09/15 14:27:19;;;;;;;;;;;21.70;92.70;;;;;;5052149;28;19921;-69
2022/09/15 14:29:49;;;;;;;;;;;21.70;92.80;;;;;;5050724;28;19908;-69